Time;durP1;ratioP1;P1;durP2;ratioP2;P2;SDS_P1;SDS_P2;PMS_P1;PMS_P2;Temp;Humidity;BMP_temperature;BMP_pressure;BME280_temperature;BME280_humidity;BME280_pressure;Samples;Min_cycle;Max_cycle;Signal;HPM_P1;HPM_P2
2022/01/13 00:00:00;;;;;;;250.20;53.33;;;4.20;99.90;;;;;;5092754;28;20097;-56
2022/01/13 00:02:30;;;;;;;232.25;53.83;;;4.20;99.90;;;;;;5091804;28;20404;-56
2022/01/13 00:04:55;;;;;;;297.90;56.13;;;4.20;99.90;;;;;;5101698;28;20039;-55
2022/01/13 00:07:21;;;;;;;346.77;64.43;;;4.20;99.90;;;;;;5104769;28;20039;-54
2022/01/13 00:09:46;;;;;;;323.77;57.60;;;4.20;99.90;;;;;;5103593;28;20036;-55
2022/01/13 00:12:14;;;;;;;331.77;58.33;;;4.20;99.90;;;;;;5100376;28;20036;-55
2022/01/13 00:14:53;;;;;;;427.05;69.05;;;4.20;99.90;;;;;;5101814;28;20036;-56
2022/01/13 00:17:32;;;;;;;341.90;62.70;;;4.20;99.90;;;;;;5095685;28;20047;-56
2022/01/13 00:25:40;;;;;;;353.70;59.55;;;4.20;99.90;;;;;;5108755;28;20079;-55
2022/01/13 00:28:16;;;;;;;341.03;62.33;;;4.20;99.90;;;;;;5107425;28;20070;-57
2022/01/13 00:30:43;;;;;;;359.77;59.87;;;4.20;99.90;;;;;;5091641;28;20040;-54
2022/01/13 00:33:11;;;;;;;360.13;63.00;;;4.20;99.90;;;;;;5090493;28;20032;-56
2022/01/13 00:35:37;;;;;;;303.48;54.40;;;4.20;99.90;;;;;;5095175;28;20114;-53
2022/01/13 00:38:03;;;;;;;339.05;60.00;;;4.20;99.90;;;;;;5110499;28;20043;-55
2022/01/13 00:40:28;;;;;;;357.50;59.70;;;4.30;99.90;;;;;;5091888;28;20311;-52
2022/01/13 00:42:54;;;;;;;334.27;56.07;;;4.30;99.90;;;;;;5089964;28;20499;-54
2022/01/13 00:45:19;;;;;;;372.33;61.53;;;4.30;99.90;;;;;;5108239;28;20047;-57
2022/01/13 00:47:45;;;;;;;258.00;52.33;;;4.30;99.90;;;;;;5060951;28;20036;-57
2022/01/13 00:50:11;;;;;;;273.63;54.30;;;4.30;99.90;;;;;;5105018;28;20122;-55
2022/01/13 00:52:36;;;;;;;451.97;65.07;;;4.30;99.90;;;;;;5096942;28;20036;-57
2022/01/13 00:55:07;;;;;;;354.77;60.33;;;4.30;99.90;;;;;;5105582;28;20476;-56
2022/01/13 00:57:33;;;;;;;404.17;64.53;;;4.30;99.90;;;;;;5098576;28;20040;-55
2022/01/13 00:59:59;;;;;;;404.63;59.50;;;4.30;99.90;;;;;;5096924;28;20084;-57
2022/01/13 01:02:26;;;;;;;391.90;61.22;;;4.30;99.90;;;;;;5105675;28;20054;-56
2022/01/13 01:04:51;;;;;;;375.77;58.28;;;4.30;99.90;;;;;;5110006;28;20031;-55
2022/01/13 01:07:18;;;;;;;470.33;65.33;;;4.30;99.90;;;;;;5109271;28;20035;-56
2022/01/13 01:09:49;;;;;;;407.95;62.00;;;4.30;99.90;;;;;;5109708;28;20035;-57
2022/01/13 01:12:16;;;;;;;407.60;59.63;;;4.30;99.90;;;;;;5083964;28;20048;-56
2022/01/13 01:14:47;;;;;;;301.25;54.85;;;4.30;99.90;;;;;;5072398;28;20044;-55
2022/01/13 01:17:15;;;;;;;387.00;57.20;;;4.40;99.90;;;;;;5077171;28;20025;-57
2022/01/13 01:19:44;;;;;;;430.45;61.25;;;4.40;99.90;;;;;;5092194;28;20235;-57
2022/01/13 01:25:31;;;;;;;352.35;57.28;;;4.40;99.90;;;;;;5091071;28;20126;-56
2022/01/13 01:27:54;;;;;;;434.95;65.40;;;4.40;99.90;;;;;;5103461;28;20069;-56
2022/01/13 01:30:40;;;;;;;421.65;61.75;;;4.40;99.90;;;;;;5112788;28;20047;-56
2022/01/13 01:33:10;;;;;;;401.40;57.72;;;4.40;99.90;;;;;;5101426;28;20111;-56
2022/01/13 01:35:37;;;;;;;420.80;62.08;;;4.40;99.90;;;;;;5093743;28;20477;-53
2022/01/13 01:38:03;;;;;;;345.58;54.88;;;4.50;99.90;;;;;;5098673;28;20036;-57
2022/01/13 01:40:29;;;;;;;398.23;60.47;;;4.50;99.90;;;;;;5095192;28;20032;-55
2022/01/13 01:42:54;;;;;;;445.60;61.03;;;4.40;99.90;;;;;;5103036;28;20038;-55
2022/01/13 01:45:20;;;;;;;424.73;59.73;;;4.50;99.90;;;;;;5112785;28;20247;-56
2022/01/13 01:47:50;;;;;;;535.88;67.95;;;4.50;99.90;;;;;;5088815;28;20059;-57
2022/01/13 01:50:18;;;;;;;366.23;58.25;;;4.50;99.90;;;;;;5077198;28;20102;-56
2022/01/13 01:52:49;;;;;;;459.23;61.65;;;4.50;99.90;;;;;;5084442;28;20028;-56
2022/01/13 01:55:17;;;;;;;367.85;58.35;;;4.50;99.90;;;;;;5099167;28;20488;-58
2022/01/13 01:57:49;;;;;;;527.28;67.80;;;4.50;99.90;;;;;;5080459;28;20074;-57
2022/01/13 02:00:17;;;;;;;331.67;55.03;;;4.50;99.90;;;;;;5111949;28;20418;-57
2022/01/13 02:02:44;;;;;;;348.73;56.38;;;4.50;99.90;;;;;;5105862;28;20514;-56
2022/01/13 02:05:09;;;;;;;417.17;60.58;;;4.50;99.90;;;;;;5103749;28;20086;-57
2022/01/13 02:07:36;;;;;;;436.92;60.05;;;4.50;99.90;;;;;;5096836;28;20067;-57
2022/01/13 02:10:04;;;;;;;281.17;50.00;;;4.50;99.90;;;;;;5112520;28;20028;-57
2022/01/13 02:12:35;;;;;;;482.02;60.67;;;4.50;99.90;;;;;;5110129;28;20040;-57
2022/01/13 02:15:59;;;;;;;403.27;60.85;;;4.50;99.90;;;;;;5112832;28;20054;-58
2022/01/13 02:17:48;;;;;;;431.00;58.90;;;4.50;99.90;;;;;;5090992;28;20118;-57
2022/01/13 02:20:17;;;;;;;442.57;60.07;;;4.60;99.90;;;;;;5112894;28;20112;-57
2022/01/13 02:22:42;;;;;;;276.33;50.55;;;4.60;99.90;;;;;;5107930;28;21251;-57
2022/01/13 02:25:11;;;;;;;358.20;57.53;;;4.60;99.90;;;;;;5100816;28;20166;-57
2022/01/13 02:27:37;;;;;;;351.25;53.22;;;4.50;99.90;;;;;;5111215;28;20428;-53
2022/01/13 02:30:03;;;;;;;382.10;54.57;;;4.60;99.90;;;;;;5092809;28;20079;-57
2022/01/13 02:32:28;;;;;;;423.63;60.55;;;4.60;99.90;;;;;;5094193;28;20116;-56
2022/01/13 02:34:54;;;;;;;435.23;61.00;;;4.60;99.90;;;;;;5111956;28;20035;-55
2022/01/13 02:37:19;;;;;;;560.90;68.80;;;4.60;99.90;;;;;;5074659;28;20044;-55
2022/01/13 02:39:45;;;;;;;473.20;62.67;;;4.60;99.90;;;;;;5092342;28;20058;-56
2022/01/13 02:42:12;;;;;;;476.07;62.33;;;4.60;99.90;;;;;;5111184;28;20066;-53
2022/01/13 02:44:50;;;;;;;466.27;63.55;;;4.60;99.90;;;;;;5078128;28;20050;-56
2022/01/13 02:50:04;;;;;;;357.70;56.65;;;4.60;99.90;;;;;;5093469;28;20040;-56
2022/01/13 02:52:31;;;;;;;402.95;56.20;;;4.60;99.90;;;;;;5093493;28;20085;-57
2022/01/13 02:54:56;;;;;;;500.88;64.10;;;4.60;99.90;;;;;;5109282;28;20042;-57
2022/01/13 02:57:22;;;;;;;352.60;52.13;;;4.60;99.90;;;;;;5077605;28;20039;-56
2022/01/13 02:59:48;;;;;;;375.07;54.10;;;4.60;99.90;;;;;;5107278;28;20043;-56
2022/01/13 03:02:13;;;;;;;402.10;57.50;;;4.60;99.90;;;;;;5103965;28;20123;-57
2022/01/13 03:04:48;;;;;;;381.43;54.40;;;4.60;99.90;;;;;;5094492;28;20063;-56
2022/01/13 03:07:14;;;;;;;426.58;59.53;;;4.60;99.90;;;;;;5092284;28;20040;-55
2022/01/13 03:09:41;;;;;;;439.50;59.22;;;4.60;99.90;;;;;;5097988;28;20039;-56
2022/01/13 03:12:08;;;;;;;384.77;51.55;;;4.70;99.90;;;;;;5091492;28;20086;-55
2022/01/13 03:14:33;;;;;;;402.45;54.60;;;4.70;99.90;;;;;;5065855;28;20524;-54
2022/01/13 03:16:59;;;;;;;342.23;50.57;;;4.60;99.90;;;;;;5105138;28;20102;-57
2022/01/13 03:19:24;;;;;;;378.27;52.93;;;4.60;99.90;;;;;;5101494;28;20396;-55
2022/01/13 03:21:50;;;;;;;437.10;57.87;;;4.70;99.90;;;;;;5112205;28;20399;-56
2022/01/13 03:24:16;;;;;;;426.43;56.43;;;4.70;99.90;;;;;;5105106;28;20072;-56
2022/01/13 03:26:44;;;;;;;398.07;57.83;;;4.70;99.90;;;;;;5093706;28;20519;-57
2022/01/13 03:31:38;;;;;;;376.83;54.95;;;4.70;99.90;;;;;;5094814;28;20373;-56
2022/01/13 03:34:04;;;;;;;382.02;51.80;;;4.70;99.90;;;;;;5106198;28;20477;-55
2022/01/13 03:36:30;;;;;;;371.75;55.10;;;4.70;99.90;;;;;;5098794;28;20047;-56
2022/01/13 03:38:56;;;;;;;337.03;50.37;;;4.70;99.90;;;;;;5108264;28;20044;-61
2022/01/13 03:41:22;;;;;;;250.10;45.60;;;4.70;99.90;;;;;;5091525;28;20032;-55
2022/01/13 03:43:51;;;;;;;;;;;4.70;99.90;;;;;;5093851;28;20286;-56
2022/01/13 03:46:17;;;;;;;228.82;40.53;;;4.70;99.90;;;;;;5084746;28;20028;-56
2022/01/13 03:48:43;;;;;;;286.80;44.92;;;4.70;99.90;;;;;;5110106;28;20039;-54
2022/01/13 03:51:09;;;;;;;238.70;40.17;;;4.70;99.90;;;;;;5091279;28;20040;-58
2022/01/13 03:53:38;;;;;;;226.93;41.33;;;4.70;99.90;;;;;;5091599;28;20034;-57
2022/01/13 03:56:25;;;;;;;234.02;40.55;;;4.70;99.90;;;;;;5108488;28;20042;-57
2022/01/13 03:59:23;;;;;;;187.48;36.05;;;4.70;99.90;;;;;;5106484;28;20050;-56
2022/01/13 04:01:57;;;;;;;220.13;37.72;;;4.70;99.90;;;;;;5093898;28;20043;-57
2022/01/13 04:04:22;;;;;;;206.98;40.08;;;4.70;99.90;;;;;;5090956;28;20539;-58
2022/01/13 04:06:48;;;;;;;237.50;42.57;;;4.70;99.90;;;;;;5108713;28;20127;-57
2022/01/13 04:09:22;;;;;;;186.27;35.33;;;4.70;99.90;;;;;;5108706;28;20027;-55
2022/01/13 04:11:48;;;;;;;137.13;32.17;;;4.70;99.90;;;;;;5091090;28;20028;-57
2022/01/13 04:14:13;;;;;;;153.23;33.63;;;4.70;99.90;;;;;;5092478;28;20039;-57
2022/01/13 04:16:39;;;;;;;175.98;33.65;;;4.70;99.90;;;;;;5092759;28;20428;-57
2022/01/13 04:19:07;;;;;;;155.27;31.97;;;4.70;99.90;;;;;;5109376;28;20027;-57
2022/01/13 04:21:34;;;;;;;201.57;35.22;;;4.70;99.90;;;;;;5110132;28;20453;-54
2022/01/13 04:24:00;;;;;;;184.13;35.65;;;4.70;99.90;;;;;;5092611;28;20115;-57
2022/01/13 04:26:31;;;;;;;186.13;35.10;;;4.70;99.90;;;;;;5092125;28;20462;-57
2022/01/13 04:29:21;;;;;;;143.95;34.17;;;4.70;99.90;;;;;;5091713;28;20047;-57
2022/01/13 04:31:50;;;;;;;240.00;42.67;;;4.70;99.90;;;;;;5082629;28;20521;-57
2022/01/13 04:34:16;;;;;;;188.05;39.05;;;4.70;99.90;;;;;;5090275;28;20035;-56
2022/01/13 04:36:42;;;;;;;233.50;39.58;;;4.70;99.90;;;;;;5078596;28;20048;-57
2022/01/13 04:39:09;;;;;;;204.80;37.33;;;4.70;99.90;;;;;;5091634;28;20046;-55
2022/01/13 04:41:37;;;;;;;239.88;43.13;;;4.70;99.90;;;;;;5090106;28;20281;-57
2022/01/13 04:44:07;;;;;;;299.73;48.10;;;4.70;99.90;;;;;;5098457;28;20509;-54
2022/01/13 04:46:33;;;;;;;292.08;48.00;;;4.70;99.90;;;;;;5106882;28;20036;-53
2022/01/13 04:48:59;;;;;;;258.10;44.17;;;4.70;99.90;;;;;;5108456;28;20350;-56
2022/01/13 04:51:26;;;;;;;300.92;49.55;;;4.70;99.90;;;;;;5080314;28;20286;-55
2022/01/13 04:53:52;;;;;;;;;;;4.60;99.90;;;;;;5094023;28;20039;-55
2022/01/13 04:56:28;;;;;;;271.85;45.83;;;4.60;99.90;;;;;;5098115;28;20412;-55
2022/01/13 04:58:53;;;;;;;279.40;46.28;;;4.60;99.90;;;;;;5103078;28;20631;-55
2022/01/13 05:01:19;;;;;;;258.40;44.20;;;4.60;99.90;;;;;;5101749;28;20039;-57
2022/01/13 05:03:45;;;;;;;319.27;49.33;;;4.60;99.90;;;;;;5097665;28;20067;-55
2022/01/13 05:06:12;;;;;;;349.73;49.43;;;4.60;99.90;;;;;;5091033;28;20035;-54
2022/01/13 05:08:39;;;;;;;304.55;47.45;;;4.60;99.90;;;;;;5095423;28;20063;-57
2022/01/13 05:11:05;;;;;;;292.42;48.05;;;4.60;99.90;;;;;;5108278;28;20036;-57
2022/01/13 05:13:31;;;;;;;262.52;49.05;;;4.60;99.90;;;;;;5092170;28;20066;-57
2022/01/13 05:15:56;;;;;;;324.35;48.53;;;4.60;99.90;;;;;;5096851;28;20036;-56
2022/01/13 05:21:17;;;;;;;298.35;47.10;;;4.50;99.90;;;;;;5103609;28;20047;-56
2022/01/13 05:23:43;;;;;;;337.92;48.90;;;4.50;99.90;;;;;;5113926;28;20063;-58
2022/01/13 05:26:09;;;;;;;273.47;48.27;;;4.50;99.90;;;;;;5114602;28;20046;-57
2022/01/13 05:28:35;;;;;;;241.38;44.83;;;4.50;99.90;;;;;;5112484;28;20038;-57
2022/01/13 05:31:01;;;;;;;239.87;44.27;;;4.50;99.90;;;;;;5098767;28;20025;-57
2022/01/13 05:33:26;;;;;;;248.43;45.07;;;4.50;99.90;;;;;;5090295;28;20589;-56
2022/01/13 05:35:52;;;;;;;304.23;47.73;;;4.40;99.90;;;;;;5100006;28;20040;-57
2022/01/13 05:38:18;;;;;;;289.57;46.93;;;4.40;99.90;;;;;;5105343;28;20032;-57
2022/01/13 05:40:44;;;;;;;380.08;55.88;;;4.40;99.90;;;;;;5108343;28;20109;-57
2022/01/13 05:43:10;;;;;;;276.20;44.55;;;4.40;99.90;;;;;;5110056;28;20093;-57
2022/01/13 05:45:36;;;;;;;312.07;48.73;;;4.40;99.90;;;;;;5096774;28;20480;-57
2022/01/13 05:48:03;;;;;;;372.63;53.42;;;4.40;99.90;;;;;;5091180;28;20082;-56
2022/01/13 05:50:29;;;;;;;;;;;4.40;99.90;;;;;;5091444;28;20032;-57
2022/01/13 05:52:54;;;;;;;294.35;45.47;;;4.40;99.90;;;;;;5077030;28;20365;-56
2022/01/13 05:55:22;;;;;;;271.97;46.77;;;4.40;99.90;;;;;;5108854;28;20170;-57
2022/01/13 05:57:47;;;;;;;222.80;40.55;;;4.40;99.90;;;;;;5105786;28;20028;-56
2022/01/13 06:00:18;;;;;;;245.93;46.40;;;4.40;99.90;;;;;;5090572;28;20466;-56
2022/01/13 06:02:45;;;;;;;208.55;41.17;;;4.40;99.90;;;;;;5073089;28;20292;-56
2022/01/13 06:05:11;;;;;;;285.02;45.58;;;4.40;99.90;;;;;;5103339;28;20058;-57
2022/01/13 06:07:37;;;;;;;275.50;46.35;;;4.40;99.90;;;;;;5105634;28;20493;-57
2022/01/13 06:10:05;;;;;;;240.15;44.63;;;4.40;99.90;;;;;;5090639;28;20035;-56
2022/01/13 06:12:34;;;;;;;253.57;46.45;;;4.40;99.90;;;;;;5091630;28;20032;-57
2022/01/13 06:15:02;;;;;;;272.02;45.40;;;4.50;99.90;;;;;;5112720;28;20039;-56
2022/01/13 06:17:28;;;;;;;251.18;44.78;;;4.40;99.90;;;;;;5111762;28;20042;-57
2022/01/13 06:19:55;;;;;;;218.52;45.08;;;4.40;99.90;;;;;;5100542;28;20118;-56
2022/01/13 06:22:24;;;;;;;280.58;46.47;;;4.40;99.90;;;;;;5105228;28;20036;-57
2022/01/13 06:24:50;;;;;;;292.70;48.17;;;4.40;99.90;;;;;;5103777;28;20043;-57
2022/01/13 06:27:16;;;;;;;307.92;47.33;;;4.40;99.90;;;;;;5097102;28;20036;-57
2022/01/13 06:29:41;;;;;;;293.02;47.05;;;4.40;99.90;;;;;;5093224;28;20044;-57
2022/01/13 06:32:07;;;;;;;226.87;41.17;;;4.40;99.90;;;;;;5092628;28;20554;-57
2022/01/13 06:34:33;;;;;;;277.30;44.17;;;4.40;99.90;;;;;;5074819;28;20044;-57
2022/01/13 06:36:58;;;;;;;234.87;45.77;;;4.40;99.90;;;;;;5074387;28;20047;-57
2022/01/13 06:39:24;;;;;;;354.90;54.23;;;4.40;99.90;;;;;;5074622;28;20286;-56
2022/01/13 06:41:50;;;;;;;204.37;44.13;;;4.40;99.90;;;;;;5092657;28;20035;-57
2022/01/13 06:44:16;;;;;;;307.65;49.30;;;4.40;99.90;;;;;;5093071;28;20079;-57
2022/01/13 06:46:41;;;;;;;315.03;49.87;;;4.40;99.90;;;;;;5092572;28;20527;-58
2022/01/13 06:49:07;;;;;;;249.60;44.30;;;4.40;99.90;;;;;;5105161;28;20032;-58
2022/01/13 06:51:33;;;;;;;346.30;51.40;;;4.40;99.90;;;;;;5107499;28;20151;-57
2022/01/13 06:53:59;;;;;;;333.15;51.53;;;4.40;99.90;;;;;;5112432;28;20039;-57
2022/01/13 06:56:26;;;;;;;332.97;49.07;;;4.40;99.90;;;;;;5108808;28;20103;-56
2022/01/13 06:58:53;;;;;;;229.00;44.08;;;4.40;99.90;;;;;;5064079;28;20050;-56
2022/01/13 07:01:20;;;;;;;334.25;49.88;;;4.40;99.90;;;;;;5092718;28;20043;-56
2022/01/13 07:03:46;;;;;;;227.73;44.67;;;4.40;99.90;;;;;;5093725;28;20047;-57
2022/01/13 07:06:12;;;;;;;200.47;40.17;;;4.40;99.90;;;;;;5091968;28;20168;-56
2022/01/13 07:08:37;;;;;;;195.53;37.47;;;4.40;99.90;;;;;;5103726;28;20047;-55
2022/01/13 07:11:04;;;;;;;286.43;44.77;;;4.40;99.90;;;;;;5112162;28;20042;-53
2022/01/13 07:13:30;;;;;;;334.30;48.35;;;4.40;99.90;;;;;;5091662;28;20058;-56
2022/01/13 07:15:58;;;;;;;;;;;4.40;99.90;;;;;;5111537;28;20119;-56
2022/01/13 07:18:23;;;;;;;160.35;34.60;;;4.40;99.90;;;;;;5098097;28;19916;-52
2022/01/13 07:20:49;;;;;;;144.80;33.92;;;4.40;99.90;;;;;;5091574;28;20040;-55
2022/01/13 07:23:15;;;;;;;158.67;36.43;;;4.40;99.90;;;;;;5075486;28;20050;-55
2022/01/13 07:25:41;;;;;;;168.50;36.63;;;4.40;99.90;;;;;;5105659;28;20458;-56
2022/01/13 07:28:06;;;;;;;164.40;36.28;;;4.40;99.90;;;;;;5094256;28;20028;-53
2022/01/13 07:30:33;;;;;;;147.17;33.63;;;4.40;99.90;;;;;;5111615;28;20043;-57
2022/01/13 07:32:59;;;;;;;165.68;36.38;;;4.50;99.90;;;;;;5111557;28;20028;-53
2022/01/13 07:35:25;;;;;;;139.15;33.70;;;4.40;99.90;;;;;;5091547;28;20104;-55
2022/01/13 07:37:51;;;;;;;178.25;36.03;;;4.50;99.90;;;;;;5103524;28;20043;-58
2022/01/13 07:40:17;;;;;;;154.10;34.20;;;4.50;99.90;;;;;;5109234;28;20036;-56
2022/01/13 07:42:46;;;;;;;151.23;34.03;;;4.50;99.90;;;;;;5111849;28;20441;-57
2022/01/13 07:45:13;;;;;;;145.43;33.95;;;4.50;99.90;;;;;;5094245;28;20028;-56
2022/01/13 07:47:38;;;;;;;172.25;38.30;;;4.50;99.90;;;;;;5092268;28;20032;-58
2022/01/13 07:50:06;;;;;;;191.07;39.77;;;4.50;99.90;;;;;;5106319;28;20036;-57
2022/01/13 07:52:32;;;;;;;187.27;36.58;;;4.50;99.90;;;;;;5111013;28;20552;-53
2022/01/13 07:54:57;;;;;;;180.90;37.97;;;4.50;99.90;;;;;;5097656;28;20118;-58
2022/01/13 07:57:23;;;;;;;199.37;39.77;;;4.50;99.90;;;;;;5096137;28;20480;-57
2022/01/13 07:59:48;;;;;;;171.73;34.63;;;4.50;99.90;;;;;;5080806;28;20044;-57
2022/01/13 08:02:14;;;;;;;188.35;37.45;;;4.60;99.90;;;;;;5072593;28;20481;-53
2022/01/13 08:04:40;;;;;;;186.40;37.13;;;4.60;99.90;;;;;;5100311;28;20036;-54
2022/01/13 08:07:05;;;;;;;162.23;34.83;;;4.60;99.90;;;;;;5111388;28;20051;-56
2022/01/13 08:09:31;;;;;;;157.83;35.87;;;4.50;99.90;;;;;;5099565;28;20028;-55
2022/01/13 08:11:56;;;;;;;147.53;33.47;;;4.60;99.90;;;;;;5110920;28;20541;-54
2022/01/13 08:14:22;;;;;;;142.47;32.80;;;4.60;99.90;;;;;;5103072;28;20046;-56
2022/01/13 08:16:49;;;;;;;178.27;35.43;;;4.60;99.90;;;;;;5090714;28;20078;-57
2022/01/13 08:21:59;;;;;;;126.43;31.38;;;4.60;99.90;;;;;;5091137;28;20492;-56
2022/01/13 08:24:25;;;;;;;154.17;35.70;;;4.60;99.90;;;;;;5097105;28;20114;-56
2022/01/13 08:26:50;;;;;;;162.43;35.58;;;4.60;99.90;;;;;;5088807;28;20043;-55
2022/01/13 08:29:16;;;;;;;162.37;33.23;;;4.60;99.90;;;;;;5096806;28;20630;-55
2022/01/13 08:31:42;;;;;;;173.40;35.70;;;4.60;99.90;;;;;;5090803;28;20562;-57
2022/01/13 08:34:07;;;;;;;142.87;35.53;;;4.60;99.90;;;;;;5090772;28;20054;-58
2022/01/13 08:36:33;;;;;;;145.47;33.73;;;4.60;99.90;;;;;;5090293;28;20386;-56
2022/01/13 08:38:59;;;;;;;170.83;35.17;;;4.60;99.90;;;;;;5090616;28;20113;-55
2022/01/13 08:41:24;;;;;;;177.70;36.33;;;4.60;99.90;;;;;;5072380;28;20055;-57
2022/01/13 08:43:52;;;;;;;155.60;35.67;;;4.70;99.90;;;;;;5090603;28;20050;-57
2022/01/13 08:46:18;;;;;;;144.15;33.20;;;4.60;99.90;;;;;;5090084;28;20047;-54
2022/01/13 08:48:43;;;;;;;165.70;34.95;;;4.70;99.90;;;;;;5092392;28;20028;-58
2022/01/13 08:51:09;;;;;;;151.27;35.03;;;4.70;99.90;;;;;;5096168;28;20032;-58
2022/01/13 08:53:35;;;;;;;123.33;31.83;;;4.70;99.90;;;;;;5097187;28;20047;-57
2022/01/13 08:56:01;;;;;;;;;;;4.70;99.90;;;;;;5090578;28;20065;-58
2022/01/13 08:58:26;;;;;;;157.43;34.97;;;4.70;99.90;;;;;;5072180;28;19942;-58
2022/01/13 09:00:55;;;;;;;145.77;34.40;;;4.70;99.90;;;;;;5090462;28;20436;-57
2022/01/13 09:03:21;;;;;;;131.52;32.13;;;4.70;99.90;;;;;;5090540;28;20093;-57
2022/01/13 09:05:46;;;;;;;184.57;40.43;;;4.70;99.90;;;;;;5090086;28;20409;-58
2022/01/13 09:08:12;;;;;;;170.40;36.67;;;4.70;99.90;;;;;;5090234;28;20440;-58
2022/01/13 09:10:40;;;;;;;138.75;33.88;;;4.70;99.90;;;;;;5094368;28;20911;-57
2022/01/13 09:13:15;;;;;;;150.88;32.92;;;4.70;99.90;;;;;;5109774;28;20044;-58
2022/01/13 09:15:50;;;;;;;176.18;36.83;;;4.70;99.90;;;;;;5101295;28;20337;-58
2022/01/13 09:18:19;;;;;;;138.35;32.42;;;4.70;99.90;;;;;;5109952;28;20040;-55
2022/01/13 09:20:46;;;;;;;142.07;35.25;;;4.70;99.90;;;;;;5098770;28;20036;-57
2022/01/13 09:23:12;;;;;;;139.25;30.60;;;4.70;99.90;;;;;;5090280;28;20035;-57
2022/01/13 09:25:38;;;;;;;;;;;4.70;99.90;;;;;;5095386;28;20046;-57
2022/01/13 09:28:06;;;;;;;144.13;32.13;;;4.70;99.90;;;;;;5090254;28;19920;-56
2022/01/13 09:30:33;;;;;;;157.38;34.92;;;4.70;99.90;;;;;;5079162;28;20070;-57
2022/01/13 09:32:58;;;;;;;140.25;33.50;;;4.80;99.90;;;;;;5076916;28;20047;-56
2022/01/13 09:35:24;;;;;;;130.37;31.97;;;4.70;99.90;;;;;;5070088;28;20041;-57
2022/01/13 09:37:50;;;;;;;156.65;35.00;;;4.80;99.90;;;;;;5045689;28;20044;-57
2022/01/13 09:40:16;;;;;;;139.10;35.00;;;4.80;99.90;;;;;;5107134;28;20035;-58
2022/01/13 09:42:43;;;;;;;143.15;33.40;;;4.80;99.90;;;;;;5094539;28;20094;-56
2022/01/13 09:45:11;;;;;;;178.57;37.90;;;4.80;99.90;;;;;;5089138;28;20436;-57
2022/01/13 09:47:38;;;;;;;134.38;32.20;;;4.80;99.90;;;;;;5087264;28;20040;-57
2022/01/13 09:50:10;;;;;;;141.68;32.67;;;4.80;99.90;;;;;;5075569;28;20032;-58
2022/01/13 09:52:37;;;;;;;153.75;33.45;;;4.80;99.90;;;;;;5084001;28;20109;-60
2022/01/13 09:55:04;;;;;;;156.07;34.08;;;4.80;99.90;;;;;;5093333;28;20131;-56
2022/01/13 09:57:29;;;;;;;190.85;36.97;;;4.80;99.90;;;;;;5075585;28;20044;-53
2022/01/13 09:59:58;;;;;;;147.27;33.47;;;4.80;99.90;;;;;;5093723;28;20035;-56
2022/01/13 10:02:24;;;;;;;158.80;33.70;;;4.80;99.90;;;;;;5087012;28;20040;-55
2022/01/13 10:04:54;;;;;;;147.70;33.08;;;4.80;99.90;;;;;;5090886;28;20036;-56
2022/01/13 10:07:41;;;;;;;164.50;32.88;;;4.90;99.90;;;;;;5098415;28;20525;-57
2022/01/13 10:10:14;;;;;;;140.02;32.58;;;4.80;99.90;;;;;;5092242;28;20575;-55
2022/01/13 10:12:48;;;;;;;147.43;34.28;;;4.80;99.90;;;;;;5084664;28;20135;-55
2022/01/13 10:18:02;;;;;;;164.32;35.50;;;4.90;99.90;;;;;;5101812;28;20067;-56
2022/01/13 10:20:28;;;;;;;148.95;32.33;;;4.90;99.90;;;;;;5069861;28;20373;-55
2022/01/13 10:22:54;;;;;;;150.13;32.78;;;4.90;99.90;;;;;;5069438;28;20036;-57
2022/01/13 10:25:30;;;;;;;142.23;31.67;;;4.90;99.90;;;;;;5069738;28;20093;-54
2022/01/13 10:28:09;;;;;;;139.27;32.80;;;4.90;99.90;;;;;;5103776;28;20046;-55
2022/01/13 10:30:37;;;;;;;133.10;33.80;;;4.90;99.90;;;;;;5081715;28;20081;-53
2022/01/13 10:33:17;;;;;;;150.95;32.85;;;4.90;99.90;;;;;;5091867;28;20078;-58
2022/01/13 10:35:43;;;;;;;149.73;32.72;;;4.90;99.90;;;;;;5088838;28;20039;-55
2022/01/13 10:38:09;;;;;;;120.55;31.70;;;4.90;99.90;;;;;;5108908;28;20042;-57
2022/01/13 10:40:40;;;;;;;142.13;32.90;;;4.90;99.90;;;;;;5076125;28;20493;-54
2022/01/13 10:43:07;;;;;;;153.40;34.53;;;5.00;99.90;;;;;;5095158;28;20138;-55
2022/01/13 10:45:43;;;;;;;129.57;32.40;;;4.90;99.90;;;;;;5091810;28;20070;-55
2022/01/13 10:48:22;;;;;;;129.48;31.33;;;4.90;99.90;;;;;;5094662;28;20115;-56
2022/01/13 10:50:59;;;;;;;140.02;32.47;;;4.90;99.90;;;;;;5092397;28;20111;-55
2022/01/13 10:53:29;;;;;;;148.90;34.42;;;5.00;99.90;;;;;;5093029;28;20040;-56
2022/01/13 10:56:02;;;;;;;151.60;35.08;;;4.90;99.90;;;;;;5097024;28;20039;-57
2022/01/13 10:58:33;;;;;;;157.43;36.15;;;5.00;99.90;;;;;;5080269;28;20047;-56
2022/01/13 11:00:59;;;;;;;151.35;34.58;;;5.00;99.90;;;;;;5094930;28;20040;-54
2022/01/13 11:03:27;;;;;;;133.60;35.05;;;5.00;99.90;;;;;;5104683;28;20062;-55
2022/01/13 11:05:55;;;;;;;156.48;37.45;;;5.00;99.90;;;;;;5108928;28;20118;-55
2022/01/13 11:08:33;;;;;;;141.60;34.20;;;5.00;99.90;;;;;;5101448;28;20392;-56
2022/01/13 11:11:01;;;;;;;142.80;34.47;;;5.00;99.90;;;;;;5074433;28;20067;-54
2022/01/13 11:13:30;;;;;;;129.05;32.08;;;5.00;99.90;;;;;;5096387;28;20032;-55
2022/01/13 11:15:57;;;;;;;127.68;31.52;;;5.00;99.90;;;;;;5073613;28;20409;-57
2022/01/13 11:18:28;;;;;;;128.65;32.90;;;5.00;99.90;;;;;;5083548;28;20051;-56
2022/01/13 11:20:55;;;;;;;143.68;33.40;;;5.00;99.90;;;;;;5111929;28;20045;-56
2022/01/13 11:23:22;;;;;;;127.20;34.88;;;5.00;99.90;;;;;;5108727;28;20071;-53
2022/01/13 11:25:55;;;;;;;132.52;34.13;;;5.00;99.90;;;;;;5111476;28;20126;-54
2022/01/13 11:28:22;;;;;;;135.70;35.15;;;5.00;99.90;;;;;;5084731;28;20034;-53
2022/01/13 11:30:49;;;;;;;;;;;5.00;99.90;;;;;;5091865;28;20047;-53
2022/01/13 11:33:16;;;;;;;;;;;5.00;99.90;;;;;;5100189;28;19924;-53
2022/01/13 11:35:48;;;;;;;148.88;36.28;;;5.00;99.90;;;;;;5099443;28;19916;-55
2022/01/13 11:38:16;;;;;;;125.72;33.92;;;5.00;99.90;;;;;;5086070;28;20063;-56
2022/01/13 11:40:45;;;;;;;149.75;33.58;;;4.90;99.90;;;;;;5111386;28;20039;-54
2022/01/13 11:43:23;;;;;;;133.27;35.13;;;5.00;99.90;;;;;;5105332;28;20044;-55
2022/01/13 11:45:49;;;;;;;125.90;33.33;;;5.00;99.90;;;;;;5100399;28;20404;-54
2022/01/13 11:48:19;;;;;;;130.02;34.45;;;5.00;99.90;;;;;;5105776;28;20621;-57
2022/01/13 11:50:50;;;;;;;147.38;36.78;;;4.90;99.90;;;;;;5105421;28;20032;-53
2022/01/13 11:53:29;;;;;;;153.05;35.25;;;4.90;99.90;;;;;;5112560;28;20154;-57
2022/01/13 11:56:07;;;;;;;125.22;33.40;;;5.00;99.90;;;;;;5073753;28;20047;-56
2022/01/13 11:58:46;;;;;;;133.98;34.53;;;5.00;99.90;;;;;;5078152;28;20108;-55
2022/01/13 12:01:31;;;;;;;135.07;36.20;;;5.00;99.90;;;;;;5092486;28;20038;-57
2022/01/13 12:04:00;;;;;;;141.93;35.85;;;5.00;99.90;;;;;;5071586;28;20122;-56
2022/01/13 12:06:37;;;;;;;146.73;34.03;;;5.00;99.90;;;;;;5110358;28;20135;-55
2022/01/13 12:09:10;;;;;;;;;;;5.00;99.90;;;;;;5101505;28;20119;-55
2022/01/13 12:11:50;;;;;;;133.13;33.72;;;5.00;99.90;;;;;;5090803;28;20323;-57
2022/01/13 12:14:27;;;;;;;120.35;35.05;;;5.00;99.90;;;;;;5089897;28;20040;-54
2022/01/13 12:16:53;;;;;;;155.00;38.10;;;5.00;99.90;;;;;;5085655;28;20373;-56
2022/01/13 12:19:42;;;;;;;137.17;35.17;;;5.10;99.90;;;;;;5091035;28;20096;-56
2022/01/13 12:22:18;;;;;;;135.90;35.58;;;5.10;99.90;;;;;;5090769;28;20324;-53
2022/01/13 12:25:01;;;;;;;123.30;35.03;;;5.10;99.90;;;;;;5084809;28;20043;-55
2022/01/13 12:27:45;;;;;;;141.63;37.53;;;5.10;99.90;;;;;;5101337;28;20465;-52
2022/01/13 12:30:14;;;;;;;141.63;36.13;;;5.10;99.90;;;;;;5097584;28;20044;-53
2022/01/13 12:33:00;;;;;;;158.70;39.67;;;5.20;99.90;;;;;;5090956;28;20040;-57
2022/01/13 12:35:34;;;;;;;120.07;36.73;;;5.10;99.90;;;;;;5090514;28;20042;-54
2022/01/13 12:38:03;;;;;;;114.82;34.50;;;5.10;99.90;;;;;;5072464;28;20059;-55
2022/01/13 12:40:34;;;;;;;124.25;34.53;;;5.20;99.90;;;;;;5090716;28;20036;-55
2022/01/13 12:46:06;;;;;;;98.82;30.52;;;5.20;99.90;;;;;;5090325;28;20106;-56
2022/01/13 12:48:33;;;;;;;91.97;32.35;;;5.20;99.90;;;;;;5090545;28;20044;-57
2022/01/13 12:50:59;;;;;;;98.28;31.92;;;5.20;99.90;;;;;;5090392;28;20031;-56
2022/01/13 12:53:27;;;;;;;;;;;5.20;99.90;;;;;;5091257;28;20070;-57
2022/01/13 12:55:57;;;;;;;101.25;30.50;;;5.20;99.90;;;;;;5085790;28;19936;-57
2022/01/13 12:58:37;;;;;;;117.78;31.83;;;5.20;99.90;;;;;;5087837;28;20040;-56
2022/01/13 13:01:11;;;;;;;106.47;33.10;;;5.20;99.90;;;;;;5090276;28;20078;-55